sensor_id;sensor_type;location;lat;lon;timestamp;pressure;altitude;pressure_sealevel;temperature;humidity
73551;BME280;61816;53.582;10.096;2023-05-22T00:02:01;54321.50;;;-144.73;100.00
73551;BME280;61816;53.582;10.096;2023-05-22T00:04:27;54354.34;;;-144.73;100.00
73551;BME280;61816;53.582;10.096;2023-05-22T00:06:54;54337.91;;;-144.73;100.00
73551;BME280;61816;53.582;10.096;2023-05-22T00:09:20;54350.22;;;-144.73;99.96
73551;BME280;61816;53.582;10.096;2023-05-22T00:11:45;54333.81;;;-144.73;100.00
73551;BME280;61816;53.582;10.096;2023-05-22T00:14:11;54370.75;;;-144.73;99.17
73551;BME280;61816;53.582;10.096;2023-05-22T00:16:38;54317.38;;;-144.73;99.86
73551;BME280;61816;53.582;10.096;2023-05-22T00:19:03;54346.13;;;-144.73;98.99
73551;BME280;61816;53.582;10.096;2023-05-22T00:21:29;54366.66;;;-144.73;99.00
73551;BME280;61816;53.582;10.096;2023-05-22T00:24:00;54329.72;;;-144.73;100.00
73551;BME280;61816;53.582;10.096;2023-05-22T00:26:25;54368.69;;;-144.73;100.00
73551;BME280;61816;53.582;10.096;2023-05-22T00:28:51;54321.50;;;-144.73;99.13
73551;BME280;61816;53.582;10.096;2023-05-22T00:31:16;54329.72;;;-144.73;99.67
73551;BME280;61816;53.582;10.096;2023-05-22T00:33:42;54321.50;;;-144.73;99.50
73551;BME280;61816;53.582;10.096;2023-05-22T00:36:07;54344.06;;;-144.73;99.48
73551;BME280;61816;53.582;10.096;2023-05-22T00:38:34;54329.72;;;-144.73;99.04
73551;BME280;61816;53.582;10.096;2023-05-22T00:41:03;54360.50;;;-144.73;100.00
73551;BME280;61816;53.582;10.096;2023-05-22T00:43:30;54321.50;;;-144.73;99.75
73551;BME280;61816;53.582;10.096;2023-05-22T00:45:55;54321.50;;;-144.73;99.33
73551;BME280;61816;53.582;10.096;2023-05-22T00:48:21;54395.38;;;-144.73;99.13
73551;BME280;61816;53.582;10.096;2023-05-22T00:50:48;54354.34;;;-144.73;99.68
73551;BME280;61816;53.582;10.096;2023-05-22T00:53:14;54391.28;;;-144.73;99.60
73551;BME280;61816;53.582;10.096;2023-05-22T00:55:40;54342.03;;;-144.73;99.63
73551;BME280;61816;53.582;10.096;2023-05-22T00:58:08;54321.50;;;-144.73;100.00
73551;BME280;61816;53.582;10.096;2023-05-22T01:00:35;54313.28;;;-144.73;99.51
73551;BME280;61816;53.582;10.096;2023-05-22T01:03:03;54374.84;;;-144.73;99.17
73551;BME280;61816;53.582;10.096;2023-05-22T01:05:29;54346.13;;;-144.73;99.89
73551;BME280;61816;53.582;10.096;2023-05-22T01:07:55;54356.38;;;-144.73;99.21
73551;BME280;61816;53.582;10.096;2023-05-22T01:10:21;54333.81;;;-144.73;100.00
73551;BME280;61816;53.582;10.096;2023-05-22T01:12:54;54362.53;;;-144.73;99.54
73551;BME280;61816;53.582;10.096;2023-05-22T01:18:33;54350.22;;;-144.73;100.00
73551;BME280;61816;53.582;10.096;2023-05-22T01:21:10;54317.38;;;-144.73;98.92
73551;BME280;61816;53.582;10.096;2023-05-22T01:27:07;54337.91;;;-144.73;99.71
73551;BME280;61816;53.582;10.096;2023-05-22T01:32:33;54358.44;;;-144.73;100.00
73551;BME280;61816;53.582;10.096;2023-05-22T01:35:01;54358.44;;;-144.73;100.00
73551;BME280;61816;53.582;10.096;2023-05-22T01:37:28;54342.03;;;-144.73;100.00
73551;BME280;61816;53.582;10.096;2023-05-22T01:39:54;54362.53;;;-144.73;100.00
73551;BME280;61816;53.582;10.096;2023-05-22T01:42:20;54313.28;;;-144.73;100.00
73551;BME280;61816;53.582;10.096;2023-05-22T01:44:48;54337.91;;;-144.73;100.00
73551;BME280;61816;53.582;10.096;2023-05-22T01:47:14;54346.13;;;-144.73;100.00
73551;BME280;61816;53.582;10.096;2023-05-22T01:49:39;54348.19;;;-144.73;100.00
73551;BME280;61816;53.582;10.096;2023-05-22T01:52:29;54346.13;;;-144.73;100.00
73551;BME280;61816;53.582;10.096;2023-05-22T01:55:10;54370.75;;;-144.73;100.00
73551;BME280;61816;53.582;10.096;2023-05-22T01:57:57;54321.50;;;-144.73;100.00
73551;BME280;61816;53.582;10.096;2023-05-22T02:00:24;54387.19;;;-144.73;100.00
73551;BME280;61816;53.582;10.096;2023-05-22T02:03:05;54346.13;;;-144.73;100.00
73551;BME280;61816;53.582;10.096;2023-05-22T02:05:33;54350.22;;;-144.73;100.00
73551;BME280;61816;53.582;10.096;2023-05-22T02:08:00;54358.44;;;-144.73;100.00
73551;BME280;61816;53.582;10.096;2023-05-22T02:10:28;54344.06;;;-144.73;100.00
73551;BME280;61816;53.582;10.096;2023-05-22T02:12:54;54378.97;;;-144.73;100.00
73551;BME280;61816;53.582;10.096;2023-05-22T02:15:20;54378.97;;;-144.73;100.00
73551;BME280;61816;53.582;10.096;2023-05-22T02:17:45;54366.66;;;-144.73;100.00
73551;BME280;61816;53.582;10.096;2023-05-22T02:20:14;54381.00;;;-144.73;99.99
73551;BME280;61816;53.582;10.096;2023-05-22T02:22:41;54337.91;;;-144.73;100.00
73551;BME280;61816;53.582;10.096;2023-05-22T02:25:07;54327.66;;;-144.73;100.00
73551;BME280;61816;53.582;10.096;2023-05-22T02:27:38;54387.19;;;-144.73;100.00
73551;BME280;61816;53.582;10.096;2023-05-22T02:30:04;54333.81;;;-144.73;100.00
73551;BME280;61816;53.582;10.096;2023-05-22T02:32:30;54352.28;;;-144.73;100.00
73551;BME280;61816;53.582;10.096;2023-05-22T02:34:55;54350.22;;;-144.73;100.00
73551;BME280;61816;53.582;10.096;2023-05-22T02:37:22;54383.06;;;-144.73;100.00
73551;BME280;61816;53.582;10.096;2023-05-22T02:39:47;54358.44;;;-144.73;100.00
73551;BME280;61816;53.582;10.096;2023-05-22T02:42:13;54409.75;;;-144.73;100.00
73551;BME280;61816;53.582;10.096;2023-05-22T02:44:38;54342.03;;;-144.73;100.00
73551;BME280;61816;53.582;10.096;2023-05-22T02:47:04;54362.53;;;-144.73;99.00
73551;BME280;61816;53.582;10.096;2023-05-22T02:49:29;54329.72;;;-144.73;99.39
73551;BME280;61816;53.582;10.096;2023-05-22T02:51:54;54337.91;;;-144.73;99.47
73551;BME280;61816;53.582;10.096;2023-05-22T02:54:20;54366.66;;;-144.73;98.54
73551;BME280;61816;53.582;10.096;2023-05-22T02:56:45;54307.13;;;-144.73;98.36
73551;BME280;61816;53.582;10.096;2023-05-22T02:59:11;54358.44;;;-144.73;99.45
73551;BME280;61816;53.582;10.096;2023-05-22T03:01:36;54350.22;;;-144.73;98.66
73551;BME280;61816;53.582;10.096;2023-05-22T03:04:03;54370.75;;;-144.73;98.44
73551;BME280;61816;53.582;10.096;2023-05-22T03:06:28;54395.38;;;-144.73;97.22
73551;BME280;61816;53.582;10.096;2023-05-22T03:08:54;54358.44;;;-144.73;97.98
73551;BME280;61816;53.582;10.096;2023-05-22T03:11:20;54348.19;;;-144.73;97.64
73551;BME280;61816;53.582;10.096;2023-05-22T03:13:45;54366.66;;;-144.73;96.21
73551;BME280;61816;53.582;10.096;2023-05-22T03:16:11;54370.75;;;-144.73;97.00
73551;BME280;61816;53.582;10.096;2023-05-22T03:18:36;54350.22;;;-144.73;95.88
73551;BME280;61816;53.582;10.096;2023-05-22T03:21:01;54370.75;;;-144.73;95.89
73551;BME280;61816;53.582;10.096;2023-05-22T03:23:27;54366.66;;;-144.73;95.13
73551;BME280;61816;53.582;10.096;2023-05-22T03:25:52;54346.13;;;-144.73;95.55
73551;BME280;61816;53.582;10.096;2023-05-22T03:28:18;54354.34;;;-144.73;94.56
73551;BME280;61816;53.582;10.096;2023-05-22T03:30:43;54374.84;;;-144.73;94.19
73551;BME280;61816;53.582;10.096;2023-05-22T03:33:09;54354.34;;;-144.73;94.46
73551;BME280;61816;53.582;10.096;2023-05-22T03:35:35;54342.03;;;-144.73;93.74
73551;BME280;61816;53.582;10.096;2023-05-22T03:38:00;54348.19;;;-144.73;93.75
73551;BME280;61816;53.582;10.096;2023-05-22T03:40:26;54362.53;;;-144.73;94.02
73551;BME280;61816;53.582;10.096;2023-05-22T03:42:51;54362.53;;;-144.73;94.16
73551;BME280;61816;53.582;10.096;2023-05-22T03:45:17;54362.53;;;-144.73;92.85
73551;BME280;61816;53.582;10.096;2023-05-22T03:47:42;54333.81;;;-144.73;92.04
73551;BME280;61816;53.582;10.096;2023-05-22T03:50:08;54329.72;;;-144.73;91.93
73551;BME280;61816;53.582;10.096;2023-05-22T03:52:33;54383.06;;;-144.73;91.48
73551;BME280;61816;53.582;10.096;2023-05-22T03:54:58;54362.53;;;-144.73;91.96
73551;BME280;61816;53.582;10.096;2023-05-22T03:57:24;54358.44;;;-144.73;90.97
73551;BME280;61816;53.582;10.096;2023-05-22T03:59:50;54387.19;;;-144.73;90.65
73551;BME280;61816;53.582;10.096;2023-05-22T04:02:15;54358.44;;;-144.73;90.59
73551;BME280;61816;53.582;10.096;2023-05-22T04:04:41;54362.53;;;-144.73;91.19
73551;BME280;61816;53.582;10.096;2023-05-22T04:07:11;54407.69;;;-144.73;90.70
73551;BME280;61816;53.582;10.096;2023-05-22T04:09:38;54370.75;;;-144.73;90.18
73551;BME280;61816;53.582;10.096;2023-05-22T04:12:03;54331.75;;;-144.73;90.64
73551;BME280;61816;53.582;10.096;2023-05-22T04:14:29;54370.75;;;-144.73;90.13
73551;BME280;61816;53.582;10.096;2023-05-22T04:16:54;54378.97;;;-144.73;89.22
73551;BME280;61816;53.582;10.096;2023-05-22T04:19:20;54358.44;;;-144.73;89.05
73551;BME280;61816;53.582;10.096;2023-05-22T04:21:47;54370.75;;;-144.73;89.30
73551;BME280;61816;53.582;10.096;2023-05-22T04:24:12;54354.34;;;-144.73;88.18
73551;BME280;61816;53.582;10.096;2023-05-22T04:26:38;54317.38;;;-144.73;89.21
73551;BME280;61816;53.582;10.096;2023-05-22T04:29:04;54354.34;;;-144.73;88.34
73551;BME280;61816;53.582;10.096;2023-05-22T04:31:34;54333.81;;;-144.73;88.03
73551;BME280;61816;53.582;10.096;2023-05-22T04:33:59;54370.75;;;-144.73;86.21
73551;BME280;61816;53.582;10.096;2023-05-22T04:36:25;54346.13;;;-144.73;85.67
73551;BME280;61816;53.582;10.096;2023-05-22T04:38:51;54321.50;;;-144.73;85.97
73551;BME280;61816;53.582;10.096;2023-05-22T04:41:17;54300.97;;;-144.73;85.29
73551;BME280;61816;53.582;10.096;2023-05-22T04:43:45;54346.13;;;-144.73;85.30
73551;BME280;61816;53.582;10.096;2023-05-22T04:46:15;54321.50;;;-144.73;85.78
73551;BME280;61816;53.582;10.096;2023-05-22T04:48:41;54337.91;;;-144.73;84.10
73551;BME280;61816;53.582;10.096;2023-05-22T04:51:06;54364.59;;;-144.73;83.53
73551;BME280;61816;53.582;10.096;2023-05-22T04:53:32;54358.44;;;-144.73;83.74
73551;BME280;61816;53.582;10.096;2023-05-22T04:55:58;54374.84;;;-144.73;83.69
73551;BME280;61816;53.582;10.096;2023-05-22T04:58:23;54325.59;;;-144.73;83.16
73551;BME280;61816;53.582;10.096;2023-05-22T05:00:52;54333.81;;;-144.73;81.80
73551;BME280;61816;53.582;10.096;2023-05-22T05:03:17;54352.28;;;-144.73;81.70
73551;BME280;61816;53.582;10.096;2023-05-22T05:05:42;54354.34;;;-144.73;80.80
73551;BME280;61816;53.582;10.096;2023-05-22T05:08:09;54325.59;;;-144.73;79.93
73551;BME280;61816;53.582;10.096;2023-05-22T05:10:34;54321.50;;;-144.73;80.01
73551;BME280;61816;53.582;10.096;2023-05-22T05:12:59;54360.50;;;-144.73;78.69
73551;BME280;61816;53.582;10.096;2023-05-22T05:15:25;54346.13;;;-144.73;79.87
73551;BME280;61816;53.582;10.096;2023-05-22T05:17:51;54358.44;;;-144.73;79.87
73551;BME280;61816;53.582;10.096;2023-05-22T05:20:17;54346.13;;;-144.73;79.63
73551;BME280;61816;53.582;10.096;2023-05-22T05:22:42;54329.72;;;-144.73;79.58
73551;BME280;61816;53.582;10.096;2023-05-22T05:25:08;54317.38;;;-144.73;78.79
73551;BME280;61816;53.582;10.096;2023-05-22T05:27:33;54300.97;;;-144.73;77.84
73551;BME280;61816;53.582;10.096;2023-05-22T05:29:59;54321.50;;;-144.73;77.68
73551;BME280;61816;53.582;10.096;2023-05-22T05:32:24;54313.28;;;-144.73;78.63
73551;BME280;61816;53.582;10.096;2023-05-22T05:34:50;54354.34;;;-144.73;78.43
73551;BME280;61816;53.582;10.096;2023-05-22T05:37:15;54317.38;;;-144.73;77.81
73551;BME280;61816;53.582;10.096;2023-05-22T05:39:41;54292.75;;;-144.73;77.55
73551;BME280;61816;53.582;10.096;2023-05-22T05:42:07;54354.34;;;-144.73;77.14
73551;BME280;61816;53.582;10.096;2023-05-22T05:44:32;54337.91;;;-144.73;77.46
73551;BME280;61816;53.582;10.096;2023-05-22T05:46:57;54321.50;;;-144.73;77.00
73551;BME280;61816;53.582;10.096;2023-05-22T05:49:23;54337.91;;;-144.73;75.85
73551;BME280;61816;53.582;10.096;2023-05-22T05:51:48;54333.81;;;-144.73;77.17
73551;BME280;61816;53.582;10.096;2023-05-22T05:54:13;54305.06;;;-144.73;75.27
73551;BME280;61816;53.582;10.096;2023-05-22T05:56:39;54329.72;;;-144.73;75.62
73551;BME280;61816;53.582;10.096;2023-05-22T05:59:04;54362.53;;;-144.73;74.29
73551;BME280;61816;53.582;10.096;2023-05-22T06:01:33;54337.91;;;-144.73;74.88
73551;BME280;61816;53.582;10.096;2023-05-22T06:03:59;54329.72;;;-144.73;74.87
73551;BME280;61816;53.582;10.096;2023-05-22T06:06:29;54300.97;;;-144.73;74.18
73551;BME280;61816;53.582;10.096;2023-05-22T06:08:55;54290.72;;;-144.73;72.28
73551;BME280;61816;53.582;10.096;2023-05-22T06:11:21;54358.44;;;-144.73;72.74
73551;BME280;61816;53.582;10.096;2023-05-22T06:13:47;54370.75;;;-144.73;71.58
73551;BME280;61816;53.582;10.096;2023-05-22T06:16:12;54300.97;;;-144.73;72.06
73551;BME280;61816;53.582;10.096;2023-05-22T06:18:38;54313.28;;;-144.73;71.75
73551;BME280;61816;53.582;10.096;2023-05-22T06:21:03;54366.66;;;-144.73;70.80
73551;BME280;61816;53.582;10.096;2023-05-22T06:23:28;54317.38;;;-144.73;68.23
73551;BME280;61816;53.582;10.096;2023-05-22T06:25:54;54321.50;;;-144.73;69.09
73551;BME280;61816;53.582;10.096;2023-05-22T06:28:19;54317.38;;;-144.73;68.23
73551;BME280;61816;53.582;10.096;2023-05-22T06:30:45;54329.72;;;-144.73;68.06
73551;BME280;61816;53.582;10.096;2023-05-22T06:33:10;54305.06;;;-144.73;68.00
73551;BME280;61816;53.582;10.096;2023-05-22T06:35:36;54292.75;;;-144.73;66.32
73551;BME280;61816;53.582;10.096;2023-05-22T06:38:01;54292.75;;;-144.73;66.07
73551;BME280;61816;53.582;10.096;2023-05-22T06:40:26;54342.03;;;-144.73;65.47
73551;BME280;61816;53.582;10.096;2023-05-22T06:42:52;54311.22;;;-144.73;65.92
73551;BME280;61816;53.582;10.096;2023-05-22T06:45:17;54350.22;;;-144.73;66.79
73551;BME280;61816;53.582;10.096;2023-05-22T06:47:44;54296.88;;;-144.73;65.72
73551;BME280;61816;53.582;10.096;2023-05-22T06:50:09;54307.13;;;-144.73;66.50
73551;BME280;61816;53.582;10.096;2023-05-22T06:52:35;54325.59;;;-144.73;66.32
73551;BME280;61816;53.582;10.096;2023-05-22T06:55:04;54309.19;;;-144.73;64.75
73551;BME280;61816;53.582;10.096;2023-05-22T06:57:30;54313.28;;;-144.73;64.56
73551;BME280;61816;53.582;10.096;2023-05-22T06:59:55;54284.56;;;-144.73;65.15
73551;BME280;61816;53.582;10.096;2023-05-22T07:02:21;54317.38;;;-144.73;64.15
73551;BME280;61816;53.582;10.096;2023-05-22T07:04:46;54305.06;;;-144.73;63.90
73551;BME280;61816;53.582;10.096;2023-05-22T07:07:12;54358.44;;;-144.73;64.58
73551;BME280;61816;53.582;10.096;2023-05-22T07:09:37;54292.75;;;-144.73;63.76
73551;BME280;61816;53.582;10.096;2023-05-22T07:12:03;54317.38;;;-144.73;64.29
73551;BME280;61816;53.582;10.096;2023-05-22T07:14:28;54325.59;;;-144.73;63.39
73551;BME280;61816;53.582;10.096;2023-05-22T07:16:54;54309.19;;;-144.73;63.34
73551;BME280;61816;53.582;10.096;2023-05-22T07:19:19;54342.03;;;-144.73;62.89
73551;BME280;61816;53.582;10.096;2023-05-22T07:21:45;54313.28;;;-144.73;62.30
73551;BME280;61816;53.582;10.096;2023-05-22T07:24:10;54300.97;;;-144.73;62.15
73551;BME280;61816;53.582;10.096;2023-05-22T07:26:37;54284.56;;;-144.73;61.72
73551;BME280;61816;53.582;10.096;2023-05-22T07:29:03;54286.59;;;-144.73;63.19
73551;BME280;61816;53.582;10.096;2023-05-22T07:31:28;54296.88;;;-144.73;60.54
73551;BME280;61816;53.582;10.096;2023-05-22T07:33:55;54311.22;;;-144.73;59.98
73551;BME280;61816;53.582;10.096;2023-05-22T07:36:21;54280.44;;;-144.73;58.98
73551;BME280;61816;53.582;10.096;2023-05-22T07:38:46;54255.81;;;-144.73;57.70
73551;BME280;61816;53.582;10.096;2023-05-22T07:41:12;54239.41;;;-144.73;55.98
73551;BME280;61816;53.582;10.096;2023-05-22T07:43:38;54284.56;;;-144.73;56.96
73551;BME280;61816;53.582;10.096;2023-05-22T07:46:03;54276.34;;;-144.73;54.59
73551;BME280;61816;53.582;10.096;2023-05-22T07:48:30;54247.59;;;-144.73;56.28
73551;BME280;61816;53.582;10.096;2023-05-22T07:50:56;54276.34;;;-144.73;54.05
73551;BME280;61816;53.582;10.096;2023-05-22T07:53:21;54247.59;;;-144.73;52.42
73551;BME280;61816;53.582;10.096;2023-05-22T07:55:47;54288.66;;;-144.73;53.10
73551;BME280;61816;53.582;10.096;2023-05-22T07:58:12;54245.56;;;-144.73;53.21
73551;BME280;61816;53.582;10.096;2023-05-22T08:00:37;54255.81;;;-144.73;51.96
73551;BME280;61816;53.582;10.096;2023-05-22T08:03:04;54251.72;;;-144.73;51.51
73551;BME280;61816;53.582;10.096;2023-05-22T08:05:30;54249.66;;;-144.73;51.76
73551;BME280;61816;53.582;10.096;2023-05-22T08:07:55;54288.66;;;-144.73;51.90
73551;BME280;61816;53.582;10.096;2023-05-22T08:10:21;54216.81;;;-144.73;51.33
73551;BME280;61816;53.582;10.096;2023-05-22T08:12:46;54247.59;;;-144.73;50.87
73551;BME280;61816;53.582;10.096;2023-05-22T08:15:12;54243.50;;;-144.73;50.50
73551;BME280;61816;53.582;10.096;2023-05-22T08:17:37;54276.34;;;-144.73;51.11
73551;BME280;61816;53.582;10.096;2023-05-22T08:20:03;54243.50;;;-144.73;50.68
73551;BME280;61816;53.582;10.096;2023-05-22T08:22:29;54251.72;;;-144.73;48.77
73551;BME280;61816;53.582;10.096;2023-05-22T08:24:55;54276.34;;;-144.73;48.67
73551;BME280;61816;53.582;10.096;2023-05-22T08:27:21;54276.34;;;-144.73;47.83
73551;BME280;61816;53.582;10.096;2023-05-22T08:29:46;54276.34;;;-144.73;48.38
73551;BME280;61816;53.582;10.096;2023-05-22T08:32:11;54247.59;;;-144.73;48.91
73551;BME280;61816;53.582;10.096;2023-05-22T08:34:37;54253.75;;;-144.73;48.92
73551;BME280;61816;53.582;10.096;2023-05-22T08:37:04;54251.72;;;-144.73;48.31
73551;BME280;61816;53.582;10.096;2023-05-22T08:39:30;54188.09;;;-144.73;47.83
73551;BME280;61816;53.582;10.096;2023-05-22T08:41:55;54229.13;;;-144.73;47.75
73551;BME280;61816;53.582;10.096;2023-05-22T08:44:21;54243.50;;;-144.73;47.16
73551;BME280;61816;53.582;10.096;2023-05-22T08:46:46;54225.03;;;-144.73;46.45
73551;BME280;61816;53.582;10.096;2023-05-22T08:49:14;54231.19;;;-144.73;45.32
73551;BME280;61816;53.582;10.096;2023-05-22T08:51:44;54222.97;;;-144.73;44.21
73551;BME280;61816;53.582;10.096;2023-05-22T08:54:12;54210.66;;;-144.73;44.51
73551;BME280;61816;53.582;10.096;2023-05-22T08:56:39;54284.56;;;-144.73;43.96
73551;BME280;61816;53.582;10.096;2023-05-22T08:59:05;54255.81;;;-144.73;44.90
73551;BME280;61816;53.582;10.096;2023-05-22T09:01:31;54243.50;;;-144.73;44.71
73551;BME280;61816;53.582;10.096;2023-05-22T09:03:59;54296.88;;;-144.73;44.47
73551;BME280;61816;53.582;10.096;2023-05-22T09:06:26;54229.13;;;-144.73;44.28
73551;BME280;61816;53.582;10.096;2023-05-22T09:08:54;54202.44;;;-144.73;43.77
73551;BME280;61816;53.582;10.096;2023-05-22T09:11:19;54249.66;;;-144.73;43.09
73551;BME280;61816;53.582;10.096;2023-05-22T09:13:45;54202.44;;;-144.73;43.59
73551;BME280;61816;53.582;10.096;2023-05-22T09:16:11;54210.66;;;-144.73;42.65
73551;BME280;61816;53.582;10.096;2023-05-22T09:18:37;54194.25;;;-144.73;43.09
73551;BME280;61816;53.582;10.096;2023-05-22T09:21:05;54186.03;;;-144.73;42.39
73551;BME280;61816;53.582;10.096;2023-05-22T09:23:32;54206.56;;;-144.73;41.49
73551;BME280;61816;53.582;10.096;2023-05-22T09:25:58;54165.50;;;-144.73;40.70
73551;BME280;61816;53.582;10.096;2023-05-22T09:28:24;54190.13;;;-144.73;41.31
73551;BME280;61816;53.582;10.096;2023-05-22T09:30:51;54227.09;;;-144.73;39.80
73551;BME280;61816;53.582;10.096;2023-05-22T09:33:21;54194.25;;;-144.73;39.15
73551;BME280;61816;53.582;10.096;2023-05-22T09:35:47;54161.41;;;-144.73;40.33
73551;BME280;61816;53.582;10.096;2023-05-22T09:38:13;54231.19;;;-144.73;39.14
73551;BME280;61816;53.582;10.096;2023-05-22T09:40:40;54165.50;;;-144.73;38.93
73551;BME280;61816;53.582;10.096;2023-05-22T09:43:16;54220.94;;;-144.73;38.05
73551;BME280;61816;53.582;10.096;2023-05-22T09:45:42;54241.44;;;-144.73;38.96
73551;BME280;61816;53.582;10.096;2023-05-22T09:48:08;54194.25;;;-144.73;38.21
73551;BME280;61816;53.582;10.096;2023-05-22T09:50:37;54194.25;;;-144.73;38.57
73551;BME280;61816;53.582;10.096;2023-05-22T09:53:04;54190.13;;;-144.73;38.69
73551;BME280;61816;53.582;10.096;2023-05-22T09:55:30;54173.72;;;-144.73;37.45
73551;BME280;61816;53.582;10.096;2023-05-22T09:57:56;54177.81;;;-144.73;37.55
73551;BME280;61816;53.582;10.096;2023-05-22T10:00:24;54206.56;;;-144.73;38.25
73551;BME280;61816;53.582;10.096;2023-05-22T10:02:53;54210.66;;;-144.73;37.56
73551;BME280;61816;53.582;10.096;2023-05-22T10:05:24;54181.94;;;-144.73;37.98
73551;BME280;61816;53.582;10.096;2023-05-22T10:07:56;54165.50;;;-144.73;37.67
73551;BME280;61816;53.582;10.096;2023-05-22T10:10:26;54145.00;;;-144.73;37.81
73551;BME280;61816;53.582;10.096;2023-05-22T10:13:00;54227.09;;;-144.73;38.23
73551;BME280;61816;53.582;10.096;2023-05-22T10:15:26;54186.03;;;-144.73;37.33
73551;BME280;61816;53.582;10.096;2023-05-22T10:17:51;54177.81;;;-144.73;37.31
73551;BME280;61816;53.582;10.096;2023-05-22T10:20:17;54149.09;;;-144.73;36.65
73551;BME280;61816;53.582;10.096;2023-05-22T10:22:45;54165.50;;;-144.73;36.79
73551;BME280;61816;53.582;10.096;2023-05-22T10:25:11;54161.41;;;-144.73;36.87
73551;BME280;61816;53.582;10.096;2023-05-22T10:27:38;54175.78;;;-144.73;36.67
73551;BME280;61816;53.582;10.096;2023-05-22T10:32:56;54161.41;;;-144.73;36.94
73551;BME280;61816;53.582;10.096;2023-05-22T10:35:30;54112.16;;;-144.73;36.46
73551;BME280;61816;53.582;10.096;2023-05-22T10:40:52;54171.66;;;-144.73;35.07
73551;BME280;61816;53.582;10.096;2023-05-22T10:43:20;54183.97;;;-144.73;35.47
73551;BME280;61816;53.582;10.096;2023-05-22T10:45:45;54145.00;;;-144.73;35.00
73551;BME280;61816;53.582;10.096;2023-05-22T10:48:12;54103.94;;;-144.73;32.95
73551;BME280;61816;53.582;10.096;2023-05-22T10:50:38;54116.25;;;-144.73;33.82
73551;BME280;61816;53.582;10.096;2023-05-22T10:53:26;54120.34;;;-144.73;32.48
73551;BME280;61816;53.582;10.096;2023-05-22T10:55:57;54157.31;;;-144.73;32.99
73551;BME280;61816;53.582;10.096;2023-05-22T10:58:31;54134.72;;;-144.73;33.14
73551;BME280;61816;53.582;10.096;2023-05-22T11:01:16;54087.53;;;-144.73;32.56
73551;BME280;61816;53.582;10.096;2023-05-22T11:04:04;54165.50;;;-144.73;32.30
73551;BME280;61816;53.582;10.096;2023-05-22T11:06:38;54128.56;;;-144.73;31.68
73551;BME280;61816;53.582;10.096;2023-05-22T11:14:51;54153.19;;;-144.73;34.01
73551;BME280;61816;53.582;10.096;2023-05-22T11:22:36;54179.88;;;-144.73;33.75
73551;BME280;61816;53.582;10.096;2023-05-22T11:25:06;54145.00;;;-144.73;34.00
73551;BME280;61816;53.582;10.096;2023-05-22T11:27:32;54167.56;;;-144.73;34.09
73551;BME280;61816;53.582;10.096;2023-05-22T11:29:58;54149.09;;;-144.73;34.70
73551;BME280;61816;53.582;10.096;2023-05-22T11:32:24;54157.31;;;-144.73;34.97
73551;BME280;61816;53.582;10.096;2023-05-22T11:34:49;54149.09;;;-144.73;34.33
73551;BME280;61816;53.582;10.096;2023-05-22T11:37:19;54099.84;;;-144.73;32.99
73551;BME280;61816;53.582;10.096;2023-05-22T11:39:54;54120.34;;;-144.73;32.38
73551;BME280;61816;53.582;10.096;2023-05-22T11:42:20;54124.47;;;-144.73;32.04
73551;BME280;61816;53.582;10.096;2023-05-22T11:44:45;54103.94;;;-144.73;31.38
73551;BME280;61816;53.582;10.096;2023-05-22T11:47:11;54099.84;;;-144.73;30.79
73551;BME280;61816;53.582;10.096;2023-05-22T11:49:36;54095.72;;;-144.73;30.86
73551;BME280;61816;53.582;10.096;2023-05-22T11:52:02;54134.72;;;-144.73;29.90
73551;BME280;61816;53.582;10.096;2023-05-22T11:54:31;54108.03;;;-144.73;31.17
73551;BME280;61816;53.582;10.096;2023-05-22T11:56:57;54099.84;;;-144.73;31.25
73551;BME280;61816;53.582;10.096;2023-05-22T11:59:22;54149.09;;;-144.73;30.92
73551;BME280;61816;53.582;10.096;2023-05-22T12:01:51;54122.41;;;-144.73;31.82
73551;BME280;61816;53.582;10.096;2023-05-22T12:04:16;54132.69;;;-144.73;31.60
73551;BME280;61816;53.582;10.096;2023-05-22T12:06:42;54103.94;;;-144.73;32.11
73551;BME280;61816;53.582;10.096;2023-05-22T12:09:08;54103.94;;;-144.73;31.32
73551;BME280;61816;53.582;10.096;2023-05-22T12:11:34;54108.03;;;-144.73;31.45
73551;BME280;61816;53.582;10.096;2023-05-22T12:14:01;54108.03;;;-144.73;30.66
73551;BME280;61816;53.582;10.096;2023-05-22T12:16:27;54071.09;;;-144.73;29.66
73551;BME280;61816;53.582;10.096;2023-05-22T12:18:52;54067.00;;;-144.73;30.04
73551;BME280;61816;53.582;10.096;2023-05-22T12:21:19;54099.84;;;-144.73;29.89
73551;BME280;61816;53.582;10.096;2023-05-22T12:23:49;54132.69;;;-144.73;29.68
73551;BME280;61816;53.582;10.096;2023-05-22T12:26:15;54095.72;;;-144.73;30.12
73551;BME280;61816;53.582;10.096;2023-05-22T12:28:41;54145.00;;;-144.73;30.15
73551;BME280;61816;53.582;10.096;2023-05-22T12:31:06;54145.00;;;-144.73;30.18
73551;BME280;61816;53.582;10.096;2023-05-22T12:33:32;54165.50;;;-144.73;30.29
73551;BME280;61816;53.582;10.096;2023-05-22T12:35:57;54112.16;;;-144.73;30.08
73551;BME280;61816;53.582;10.096;2023-05-22T12:38:28;54136.78;;;-144.73;30.13
73551;BME280;61816;53.582;10.096;2023-05-22T12:40:54;54128.56;;;-144.73;30.26
73551;BME280;61816;53.582;10.096;2023-05-22T12:43:22;54071.09;;;-144.73;29.78
73551;BME280;61816;53.582;10.096;2023-05-22T12:45:47;54108.03;;;-144.73;28.83
73551;BME280;61816;53.582;10.096;2023-05-22T12:48:13;54067.00;;;-144.73;28.76
73551;BME280;61816;53.582;10.096;2023-05-22T12:50:39;54112.16;;;-144.73;29.17
73551;BME280;61816;53.582;10.096;2023-05-22T12:53:04;54083.41;;;-144.73;28.98